createdAt,value
2017-07-06T00:00:52.969Z,85
2017-07-06T00:01:55.011Z,85
2017-07-06T00:02:57.043Z,85
2017-07-06T00:03:59.084Z,85
2017-07-06T00:05:01.126Z,85
2017-07-06T00:06:03.145Z,85
2017-07-06T00:07:05.193Z,85
2017-07-06T00:08:07.219Z,85
2017-07-06T00:09:09.263Z,85
2017-07-06T00:10:11.301Z,85
2017-07-06T00:11:13.338Z,84
2017-07-06T00:12:15.372Z,84
2017-07-06T00:13:17.414Z,84
2017-07-06T00:14:19.433Z,84
2017-07-06T00:15:21.481Z,83
2017-07-06T00:16:23.513Z,83
2017-07-06T00:17:25.556Z,83
2017-07-06T00:18:27.601Z,83
2017-07-06T00:19:29.634Z,83
2017-07-06T00:20:31.679Z,83
2017-07-06T00:21:33.721Z,83
2017-07-06T00:22:35.764Z,83
2017-07-06T00:23:38.138Z,84
2017-07-06T00:24:40.177Z,84
2017-07-06T00:25:42.217Z,83
2017-07-06T00:26:44.256Z,82
2017-07-06T00:27:46.288Z,83
2017-07-06T00:28:48.337Z,82
2017-07-06T00:29:50.367Z,83
2017-07-06T00:30:52.413Z,82
2017-07-06T00:31:54.449Z,80
2017-07-06T00:32:56.489Z,82
2017-07-06T00:33:58.528Z,83
2017-07-06T00:35:00.558Z,84
2017-07-06T00:36:02.602Z,84
2017-07-06T00:37:04.642Z,84
2017-07-06T00:38:06.675Z,84
2017-07-06T00:39:08.723Z,84
2017-07-06T00:40:10.757Z,84
2017-07-06T00:41:12.803Z,84
2017-07-06T00:42:14.835Z,84
2017-07-06T00:43:16.869Z,84
2017-07-06T00:44:18.912Z,84
2017-07-06T00:45:20.950Z,84
2017-07-06T00:46:22.985Z,83
2017-07-06T00:47:25.041Z,83
2017-07-06T00:48:27.065Z,84
2017-07-06T00:49:29.102Z,84
2017-07-06T00:50:31.134Z,84
2017-07-06T00:51:33.176Z,84
2017-07-06T00:52:35.217Z,84
2017-07-06T00:53:37.264Z,84
2017-07-06T00:54:39.284Z,85
2017-07-06T00:55:41.326Z,85
2017-07-06T00:56:43.361Z,85
2017-07-06T00:57:45.398Z,85
2017-07-06T00:58:47.442Z,85
2017-07-06T00:59:49.475Z,85
2017-07-06T01:00:51.519Z,86
2017-07-06T01:01:53.554Z,86
2017-07-06T01:02:55.582Z,86
2017-07-06T01:03:57.623Z,86
2017-07-06T01:04:59.653Z,86
2017-07-06T01:06:01.690Z,85
2017-07-06T01:07:03.743Z,85
2017-07-06T01:08:05.766Z,85
2017-07-06T01:09:07.817Z,85
2017-07-06T01:10:09.842Z,84
2017-07-06T01:11:11.887Z,84
2017-07-06T01:12:13.922Z,84
2017-07-06T01:13:15.946Z,84
2017-07-06T01:14:17.986Z,84
2017-07-06T01:15:20.032Z,84
2017-07-06T01:16:22.073Z,84
2017-07-06T01:17:24.118Z,84
2017-07-06T01:18:26.150Z,84
2017-07-06T01:19:28.187Z,84
2017-07-06T01:20:30.219Z,84
2017-07-06T01:21:32.251Z,84
2017-07-06T01:22:34.297Z,84
2017-07-06T01:23:36.335Z,84
2017-07-06T01:24:38.371Z,84
2017-07-06T01:25:40.411Z,84
2017-07-06T01:26:42.441Z,84
2017-07-06T01:27:44.491Z,84
2017-07-06T01:28:46.519Z,84
2017-07-06T01:29:48.560Z,84
2017-07-06T01:30:50.938Z,83
2017-07-06T01:31:52.984Z,81
2017-07-06T01:32:55.022Z,83
2017-07-06T01:33:57.059Z,84
2017-07-06T01:34:59.095Z,84
2017-07-06T01:36:01.537Z,85
2017-07-06T01:37:03.572Z,85
2017-07-06T01:38:05.663Z,86
2017-07-06T01:39:07.653Z,85
2017-07-06T01:40:09.714Z,85
2017-07-06T01:41:11.746Z,85
2017-07-06T01:42:13.784Z,83
2017-07-06T01:43:15.815Z,83
2017-07-06T01:44:17.850Z,84
2017-07-06T01:45:19.899Z,84
2017-07-06T01:46:21.937Z,84
2017-07-06T01:47:23.975Z,83
2017-07-06T01:48:26.018Z,83
2017-07-06T01:49:28.392Z,84
2017-07-06T01:50:30.434Z,83
2017-07-06T01:51:32.473Z,83
2017-07-06T01:52:34.516Z,82
2017-07-06T01:53:36.559Z,81
2017-07-06T01:54:38.954Z,82
2017-07-06T01:55:40.979Z,82
2017-07-06T01:56:43.017Z,82
2017-07-06T01:57:45.401Z,82
2017-07-06T01:58:47.442Z,82
2017-07-06T01:59:49.479Z,82
2017-07-06T02:00:51.879Z,82
2017-07-06T02:01:53.905Z,83
2017-07-06T02:02:55.940Z,83
2017-07-06T02:03:57.972Z,83
2017-07-06T02:05:00.014Z,83
2017-07-06T02:06:02.058Z,83
2017-07-06T02:07:04.091Z,83
2017-07-06T02:08:06.123Z,83
2017-07-06T02:09:08.160Z,84
2017-07-06T02:10:10.190Z,84
2017-07-06T02:11:12.224Z,85
2017-07-06T02:12:14.263Z,85
2017-07-06T02:13:16.299Z,85
2017-07-06T02:14:18.332Z,85
2017-07-06T02:15:20.384Z,85
2017-07-06T02:16:22.414Z,84
2017-07-06T02:17:24.440Z,84
2017-07-06T02:18:26.483Z,84
2017-07-06T02:19:28.518Z,83
2017-07-06T02:20:30.561Z,83
2017-07-06T02:21:32.594Z,84
2017-07-06T02:22:34.635Z,83
2017-07-06T02:23:36.673Z,83
2017-07-06T02:24:38.695Z,83
2017-07-06T02:25:40.735Z,83
2017-07-06T02:26:42.785Z,83
2017-07-06T02:27:44.825Z,83
2017-07-06T02:28:46.865Z,84
2017-07-06T02:29:48.910Z,84
2017-07-06T02:30:50.942Z,84
2017-07-06T02:31:52.982Z,84
2017-07-06T02:32:55.017Z,84
2017-07-06T02:33:57.068Z,84
2017-07-06T02:34:59.104Z,84
2017-07-06T02:36:01.129Z,84
2017-07-06T02:37:03.178Z,84
2017-07-06T02:38:05.212Z,84
2017-07-06T02:39:07.248Z,84
2017-07-06T02:40:09.293Z,84
2017-07-06T02:41:11.336Z,85
2017-07-06T02:42:13.381Z,85
2017-07-06T02:43:15.408Z,85
2017-07-06T02:44:17.446Z,85
2017-07-06T02:45:19.491Z,85
2017-07-06T02:46:21.873Z,85
2017-07-06T02:47:23.912Z,85
2017-07-06T02:48:25.936Z,85
2017-07-06T02:49:27.980Z,85
2017-07-06T02:50:30.029Z,85
2017-07-06T02:51:32.066Z,85
2017-07-06T02:52:34.101Z,85
2017-07-06T02:53:36.141Z,85
2017-07-06T02:54:38.186Z,85
2017-07-06T02:55:40.227Z,85
2017-07-06T02:56:42.263Z,85
2017-07-06T02:57:44.323Z,85
2017-07-06T02:58:46.352Z,84
2017-07-06T02:59:48.378Z,84
2017-07-06T03:00:50.418Z,84
2017-07-06T03:01:52.449Z,84
2017-07-06T03:02:54.488Z,84
2017-07-06T03:03:56.526Z,84
2017-07-06T03:04:58.571Z,85
2017-07-06T03:06:00.611Z,85
2017-07-06T03:07:02.641Z,86
2017-07-06T03:08:05.020Z,86
2017-07-06T03:09:07.078Z,86
2017-07-06T03:10:09.459Z,86
2017-07-06T03:11:11.498Z,86
2017-07-06T03:12:13.534Z,86
2017-07-06T03:13:15.573Z,86
2017-07-06T03:14:17.612Z,86
2017-07-06T03:15:19.638Z,86
2017-07-06T03:16:21.691Z,86
2017-07-06T03:17:23.730Z,86
2017-07-06T03:18:25.766Z,87
2017-07-06T03:19:27.808Z,87
2017-07-06T03:20:29.841Z,87
2017-07-06T03:21:31.884Z,87
2017-07-06T03:22:33.917Z,87
2017-07-06T03:23:35.959Z,88
2017-07-06T03:24:37.991Z,88
2017-07-06T03:25:40.035Z,88
2017-07-06T03:26:42.082Z,87
2017-07-06T03:27:44.123Z,87
2017-07-06T03:28:46.160Z,87
2017-07-06T03:29:48.201Z,87
2017-07-06T03:30:50.241Z,87
2017-07-06T03:31:52.631Z,87
2017-07-06T03:32:54.667Z,87
2017-07-06T03:33:56.712Z,87
2017-07-06T03:34:58.755Z,87
2017-07-06T03:36:00.788Z,86
2017-07-06T03:37:02.819Z,86
2017-07-06T03:38:04.862Z,86
2017-07-06T03:39:06.896Z,86
2017-07-06T03:40:08.930Z,86
2017-07-06T03:41:10.970Z,86
2017-07-06T03:42:13.011Z,86
2017-07-06T03:43:15.051Z,86
2017-07-06T03:44:17.091Z,85
2017-07-06T03:45:19.128Z,85
2017-07-06T03:46:21.175Z,85
2017-07-06T03:47:23.219Z,85
2017-07-06T03:48:25.267Z,86
2017-07-06T03:49:27.311Z,86
2017-07-06T03:50:29.356Z,85
2017-07-06T03:51:31.385Z,85
2017-07-06T03:52:33.418Z,84
2017-07-06T03:53:35.462Z,83
2017-07-06T03:54:37.496Z,83
2017-07-06T03:55:39.534Z,82
2017-07-06T03:56:41.579Z,80
2017-07-06T03:57:43.607Z,80
2017-07-06T03:58:45.645Z,80
2017-07-06T03:59:47.678Z,80
2017-07-06T04:00:49.773Z,79
2017-07-06T04:01:51.776Z,79
2017-07-06T04:02:53.812Z,79
2017-07-06T04:03:55.846Z,79
2017-07-06T04:04:57.882Z,79
2017-07-06T04:05:59.916Z,78
2017-07-06T04:07:01.951Z,78
2017-07-06T04:08:04.003Z,78
2017-07-06T04:09:06.050Z,78
2017-07-06T04:10:08.083Z,78
2017-07-06T04:11:10.123Z,77
2017-07-06T04:12:12.165Z,77
2017-07-06T04:13:14.210Z,77
2017-07-06T04:14:16.262Z,77
2017-07-06T04:15:18.302Z,77
2017-07-06T04:16:20.351Z,77
2017-07-06T04:17:22.386Z,77
2017-07-06T04:18:24.422Z,77
2017-07-06T04:19:26.464Z,77
2017-07-06T04:20:28.509Z,77
2017-07-06T04:21:30.540Z,77
2017-07-06T04:22:32.587Z,77
2017-07-06T04:23:34.620Z,78
2017-07-06T04:24:36.660Z,78
2017-07-06T04:25:39.414Z,78
2017-07-06T04:26:41.451Z,78
2017-07-06T04:27:43.504Z,78
2017-07-06T04:28:45.540Z,78
2017-07-06T04:29:47.570Z,78
2017-07-06T04:30:49.618Z,79
2017-07-06T04:31:51.659Z,79
2017-07-06T04:32:53.701Z,79
2017-07-06T04:33:55.738Z,79
2017-07-06T04:34:57.777Z,79
2017-07-06T04:35:59.822Z,79
2017-07-06T04:37:01.847Z,80
2017-07-06T04:38:03.896Z,80
2017-07-06T04:39:05.949Z,80
2017-07-06T04:40:07.991Z,80
2017-07-06T04:41:10.032Z,80
2017-07-06T04:42:12.068Z,80
2017-07-06T04:43:14.111Z,80
2017-07-06T04:44:16.197Z,80
2017-07-06T04:45:18.195Z,80
2017-07-06T04:46:20.224Z,80
2017-07-06T04:47:22.270Z,80
2017-07-06T04:48:24.365Z,80
2017-07-06T04:49:26.426Z,80
2017-07-06T04:50:28.474Z,80
2017-07-06T04:51:30.517Z,80
2017-07-06T04:52:32.556Z,80
2017-07-06T04:53:34.596Z,80
2017-07-06T04:54:36.639Z,80
2017-07-06T04:55:38.690Z,80
2017-07-06T04:56:40.738Z,80
2017-07-06T04:57:42.776Z,80
2017-07-06T04:58:44.839Z,80
2017-07-06T04:59:46.882Z,79
2017-07-06T05:00:48.918Z,80
2017-07-06T05:01:50.961Z,80
2017-07-06T05:02:53.014Z,79
2017-07-06T05:03:55.066Z,79
2017-07-06T05:04:57.106Z,80
2017-07-06T05:05:59.138Z,79
2017-07-06T05:07:01.196Z,79
2017-07-06T05:08:03.245Z,79
2017-07-06T05:09:05.340Z,79
2017-07-06T05:10:07.727Z,79
2017-07-06T05:11:09.768Z,79
2017-07-06T05:12:11.800Z,78
2017-07-06T05:13:13.839Z,78
2017-07-06T05:14:15.875Z,78
2017-07-06T05:15:17.926Z,79
2017-07-06T05:16:19.973Z,80
2017-07-06T05:17:22.011Z,80
2017-07-06T05:18:24.061Z,79
2017-07-06T05:19:26.113Z,79
2017-07-06T05:20:28.156Z,78
2017-07-06T05:21:30.192Z,79
2017-07-06T05:22:32.233Z,78
2017-07-06T05:23:34.269Z,78
2017-07-06T05:24:36.313Z,78
2017-07-06T05:25:38.352Z,78
2017-07-06T05:26:40.392Z,79
2017-07-06T05:27:42.461Z,78
2017-07-06T05:28:44.827Z,78
2017-07-06T05:29:46.870Z,78
2017-07-06T05:30:48.917Z,78
2017-07-06T05:31:50.951Z,77
2017-07-06T05:32:53.009Z,78
2017-07-06T05:33:55.047Z,79
2017-07-06T05:34:57.097Z,79
2017-07-06T05:35:59.134Z,79
2017-07-06T05:37:01.202Z,79
2017-07-06T05:38:03.253Z,79
2017-07-06T05:39:10.313Z,78
2017-07-06T05:40:16.244Z,79
2017-07-06T05:41:18.309Z,80
2017-07-06T05:42:20.379Z,81
2017-07-06T05:43:22.447Z,81
2017-07-06T05:44:24.568Z,81
2017-07-06T05:45:26.588Z,82
2017-07-06T05:46:28.638Z,83
2017-07-06T05:47:30.709Z,81
2017-07-06T05:48:32.769Z,82
2017-07-06T05:49:34.838Z,82
2017-07-06T05:50:36.899Z,81
2017-07-06T05:51:38.963Z,81
2017-07-06T05:52:41.029Z,80
2017-07-06T05:53:43.776Z,79
2017-07-06T05:54:45.834Z,78
2017-07-06T05:55:47.895Z,79
2017-07-06T05:56:49.960Z,78
2017-07-06T05:57:52.022Z,79
2017-07-06T05:58:54.440Z,77
2017-07-06T05:59:56.497Z,77
2017-07-06T06:00:58.563Z,77
2017-07-06T06:02:01.401Z,76
2017-07-06T06:03:03.459Z,76
2017-07-06T06:04:05.523Z,76
2017-07-06T06:05:07.590Z,76
2017-07-06T06:06:09.659Z,75
2017-07-06T06:07:11.721Z,76
2017-07-06T06:08:13.786Z,76
2017-07-06T06:09:15.865Z,75
2017-07-06T06:10:17.932Z,75
2017-07-06T06:11:20.001Z,75
2017-07-06T06:12:22.065Z,75
2017-07-06T06:13:24.131Z,75
2017-07-06T06:14:26.201Z,75
2017-07-06T06:15:28.259Z,74
2017-07-06T06:16:30.673Z,74
2017-07-06T06:17:32.747Z,75
2017-07-06T06:18:34.799Z,75
2017-07-06T06:19:36.888Z,75
2017-07-06T06:20:39.008Z,75
2017-07-06T06:21:42.066Z,75
2017-07-06T06:22:45.075Z,75
2017-07-06T06:23:47.189Z,75
2017-07-06T06:24:49.784Z,75
2017-07-06T06:25:52.055Z,75
2017-07-06T06:26:54.593Z,75
2017-07-06T06:27:56.821Z,75
2017-07-06T06:28:59.099Z,75
2017-07-06T06:30:01.257Z,74
2017-07-06T06:31:03.348Z,75
2017-07-06T06:32:05.449Z,75
2017-07-06T06:33:07.530Z,74
2017-07-06T06:34:09.607Z,74
2017-07-06T06:35:11.691Z,73
2017-07-06T06:36:13.785Z,74
2017-07-06T06:37:15.872Z,74
2017-07-06T06:38:18.024Z,73
2017-07-06T06:39:20.165Z,73
2017-07-06T06:40:22.312Z,72
2017-07-06T06:41:24.459Z,72
2017-07-06T06:42:26.664Z,70
2017-07-06T06:43:28.784Z,71
2017-07-06T06:44:30.903Z,70
2017-07-06T06:45:33.014Z,71
2017-07-06T06:46:35.183Z,70
2017-07-06T06:47:37.287Z,71
2017-07-06T06:48:39.485Z,71
2017-07-06T06:49:41.636Z,72
2017-07-06T06:50:43.724Z,72
2017-07-06T06:51:45.811Z,72
2017-07-06T06:52:47.905Z,72
2017-07-06T06:53:49.997Z,72
2017-07-06T06:54:52.115Z,72
2017-07-06T06:55:54.194Z,71
2017-07-06T06:56:56.263Z,70
2017-07-06T06:57:58.412Z,69
2017-07-06T06:59:00.848Z,70
2017-07-06T07:00:03.075Z,70
2017-07-06T07:01:05.220Z,70
2017-07-06T07:02:07.660Z,70
2017-07-06T07:03:09.792Z,70
2017-07-06T07:04:11.943Z,69
2017-07-06T07:05:14.046Z,69
2017-07-06T07:06:16.137Z,68
2017-07-06T07:07:18.325Z,66
2017-07-06T07:08:20.473Z,66
2017-07-06T07:09:22.544Z,68
2017-07-06T07:10:24.665Z,68
2017-07-06T07:11:26.840Z,68
2017-07-06T07:12:28.977Z,68
2017-07-06T07:13:31.046Z,69
2017-07-06T07:14:33.189Z,69
2017-07-06T07:15:35.298Z,69
2017-07-06T07:16:37.389Z,69
2017-07-06T07:17:39.456Z,68
2017-07-06T07:18:41.568Z,66
2017-07-06T07:19:43.647Z,65
2017-07-06T07:20:45.797Z,66
2017-07-06T07:21:47.858Z,67
2017-07-06T07:22:50.024Z,67
2017-07-06T07:23:52.168Z,67
2017-07-06T07:24:54.324Z,65
2017-07-06T07:25:56.449Z,64
2017-07-06T07:26:58.556Z,64
2017-07-06T07:28:00.627Z,65
2017-07-06T07:29:02.737Z,62
2017-07-06T07:30:04.798Z,62
2017-07-06T07:31:06.875Z,62
2017-07-06T07:32:08.942Z,62
2017-07-06T07:33:11.015Z,63
2017-07-06T07:34:13.097Z,63
2017-07-06T07:35:15.162Z,61
2017-07-06T07:36:17.225Z,61
2017-07-06T07:37:19.292Z,63
2017-07-06T07:38:21.370Z,65
2017-07-06T07:39:23.444Z,65
2017-07-06T07:40:25.512Z,62
2017-07-06T07:41:27.583Z,63
2017-07-06T07:42:29.655Z,63
2017-07-06T07:43:31.718Z,62
2017-07-06T07:44:33.786Z,61
2017-07-06T07:45:35.858Z,61
2017-07-06T07:46:37.942Z,62
2017-07-06T07:47:40.015Z,61
2017-07-06T07:48:42.073Z,61
2017-07-06T07:49:44.147Z,60
2017-07-06T07:50:46.220Z,61
2017-07-06T07:51:48.288Z,61
2017-07-06T07:52:50.369Z,59
2017-07-06T07:53:52.436Z,59
2017-07-06T07:54:54.500Z,59
2017-07-06T07:55:56.586Z,60
2017-07-06T07:56:58.642Z,58
2017-07-06T07:58:00.711Z,59
2017-07-06T07:59:02.789Z,62
2017-07-06T08:00:04.852Z,59
2017-07-06T08:01:06.925Z,60
2017-07-06T08:02:08.999Z,61
2017-07-06T08:03:11.082Z,59
2017-07-06T08:04:13.150Z,60
2017-07-06T08:05:15.217Z,58
2017-07-06T08:06:17.298Z,57
2017-07-06T08:07:19.383Z,58
2017-07-06T08:08:21.451Z,58
2017-07-06T08:09:23.522Z,60
2017-07-06T08:10:25.604Z,58
2017-07-06T08:11:27.679Z,57
2017-07-06T08:12:29.742Z,58
2017-07-06T08:13:31.808Z,58
2017-07-06T08:14:33.883Z,58
2017-07-06T08:15:35.955Z,59
2017-07-06T08:16:38.026Z,58
2017-07-06T08:17:40.101Z,56
2017-07-06T08:18:42.170Z,56
2017-07-06T08:19:44.244Z,55
2017-07-06T08:20:46.317Z,56
2017-07-06T08:21:48.404Z,56
2017-07-06T08:22:50.478Z,57
2017-07-06T08:23:52.538Z,57
2017-07-06T08:24:54.618Z,57
2017-07-06T08:25:56.698Z,55
2017-07-06T08:26:59.115Z,56
2017-07-06T08:28:01.201Z,56
2017-07-06T08:29:03.600Z,57
2017-07-06T08:30:05.671Z,57
2017-07-06T08:31:07.754Z,57
2017-07-06T08:32:09.825Z,57
2017-07-06T08:33:11.898Z,59
2017-07-06T08:34:13.969Z,62
2017-07-06T08:35:16.035Z,64
2017-07-06T08:36:18.113Z,64
2017-07-06T08:37:20.181Z,65
2017-07-06T08:38:22.260Z,65
2017-07-06T08:39:24.327Z,63
2017-07-06T08:40:26.404Z,64
2017-07-06T08:41:28.477Z,64
2017-07-06T08:42:30.547Z,64
2017-07-06T08:43:32.616Z,65
2017-07-06T08:44:34.701Z,60
2017-07-06T08:45:36.758Z,59
2017-07-06T08:46:38.831Z,59
2017-07-06T08:47:40.894Z,60
2017-07-06T08:48:42.965Z,59
2017-07-06T08:49:45.388Z,57
2017-07-06T08:50:47.456Z,58
2017-07-06T08:51:49.529Z,58
2017-07-06T08:52:51.602Z,62
2017-07-06T08:53:53.672Z,61
2017-07-06T08:54:55.750Z,62
2017-07-06T08:55:57.811Z,61
2017-07-06T08:56:59.895Z,58
2017-07-06T08:58:01.963Z,62
2017-07-06T08:59:04.035Z,58
2017-07-06T09:00:06.105Z,57
2017-07-06T09:01:08.175Z,58
2017-07-06T09:02:10.240Z,60
2017-07-06T09:03:12.316Z,59
2017-07-06T09:04:14.372Z,58
2017-07-06T09:05:16.454Z,58
2017-07-06T09:06:18.535Z,58
2017-07-06T09:07:20.956Z,59
2017-07-06T09:08:23.031Z,61
2017-07-06T09:09:25.102Z,63
2017-07-06T09:10:27.166Z,62
2017-07-06T09:11:29.250Z,64
2017-07-06T09:12:31.328Z,62
2017-07-06T09:13:33.399Z,61
2017-07-06T09:14:35.478Z,63
2017-07-06T09:15:37.547Z,64
2017-07-06T09:16:39.611Z,63
2017-07-06T09:17:41.688Z,61
2017-07-06T09:18:43.764Z,63
2017-07-06T09:19:45.841Z,62
2017-07-06T09:20:47.902Z,66
2017-07-06T09:21:49.976Z,65
2017-07-06T09:22:52.041Z,65
2017-07-06T09:23:54.111Z,64
2017-07-06T09:24:56.181Z,64
2017-07-06T09:25:58.265Z,67
2017-07-06T09:27:00.328Z,67
2017-07-06T09:28:02.393Z,63
2017-07-06T09:29:04.467Z,64
2017-07-06T09:30:06.545Z,66
2017-07-06T09:31:08.640Z,61
2017-07-06T09:32:10.712Z,59
2017-07-06T09:33:12.791Z,58
2017-07-06T09:34:14.869Z,59
2017-07-06T09:35:16.940Z,56
2017-07-06T09:36:19.012Z,55
2017-07-06T09:37:21.090Z,55
2017-07-06T09:38:23.163Z,55
2017-07-06T09:39:25.237Z,55
2017-07-06T09:40:27.305Z,58
2017-07-06T09:41:29.372Z,56
2017-07-06T09:42:31.443Z,56
2017-07-06T09:43:33.521Z,59
2017-07-06T09:44:35.602Z,62
2017-07-06T09:45:37.678Z,55
2017-07-06T09:46:39.764Z,54
2017-07-06T09:47:41.830Z,54
2017-07-06T09:48:43.904Z,54
2017-07-06T09:49:46.326Z,58
2017-07-06T09:50:48.395Z,61
2017-07-06T09:51:50.472Z,56
2017-07-06T09:52:52.537Z,52
2017-07-06T09:53:54.628Z,53
2017-07-06T09:54:56.710Z,55
2017-07-06T09:55:58.785Z,55
2017-07-06T09:57:00.878Z,54
2017-07-06T09:58:03.292Z,53
2017-07-06T09:59:05.362Z,54
2017-07-06T10:00:07.448Z,52
2017-07-06T10:01:09.529Z,53
2017-07-06T10:02:11.619Z,52
2017-07-06T10:03:13.698Z,51
2017-07-06T10:04:15.775Z,51
2017-07-06T10:05:17.860Z,51
2017-07-06T10:06:19.939Z,51
2017-07-06T10:07:22.017Z,52
2017-07-06T10:08:24.098Z,50
2017-07-06T10:09:26.168Z,50
2017-07-06T10:10:28.251Z,53
2017-07-06T10:11:30.312Z,54
2017-07-06T10:12:32.387Z,55
2017-07-06T10:13:34.469Z,53
2017-07-06T10:14:36.547Z,53
2017-07-06T10:15:38.626Z,52
2017-07-06T10:16:41.056Z,54
2017-07-06T10:17:43.137Z,57
2017-07-06T10:18:45.221Z,55
2017-07-06T10:19:47.289Z,58
2017-07-06T10:20:49.370Z,57
2017-07-06T10:21:51.454Z,55
2017-07-06T10:22:53.527Z,55
2017-07-06T10:23:55.614Z,54
2017-07-06T10:24:57.698Z,56
2017-07-06T10:25:59.782Z,56
2017-07-06T10:27:01.876Z,56
2017-07-06T10:28:03.944Z,57
2017-07-06T10:29:06.012Z,56
2017-07-06T10:30:08.087Z,56
2017-07-06T10:31:10.169Z,55
2017-07-06T10:32:12.239Z,54
2017-07-06T10:33:14.319Z,55
2017-07-06T10:34:16.396Z,56
2017-07-06T10:35:18.482Z,54
2017-07-06T10:36:20.549Z,50
2017-07-06T10:37:22.625Z,50
2017-07-06T10:38:24.706Z,49
2017-07-06T10:39:26.793Z,51
2017-07-06T10:40:28.874Z,51
2017-07-06T10:41:30.961Z,52
2017-07-06T10:42:33.033Z,51
2017-07-06T10:43:35.126Z,48
2017-07-06T10:44:37.217Z,49
2017-07-06T10:45:39.296Z,48
2017-07-06T10:46:41.374Z,48
2017-07-06T10:47:43.459Z,49
2017-07-06T10:48:45.532Z,49
2017-07-06T10:49:47.629Z,50
2017-07-06T10:50:49.696Z,52
2017-07-06T10:51:51.781Z,53
2017-07-06T10:52:53.861Z,53
2017-07-06T10:53:55.942Z,52
2017-07-06T10:54:58.028Z,53
2017-07-06T10:56:00.100Z,53
2017-07-06T10:57:02.183Z,55
2017-07-06T10:58:04.274Z,56
2017-07-06T10:59:06.342Z,55
2017-07-06T11:00:08.422Z,56
2017-07-06T11:01:10.502Z,53
2017-07-06T11:02:12.934Z,55
2017-07-06T11:03:15.020Z,55
2017-07-06T11:04:17.446Z,53
2017-07-06T11:05:19.524Z,55
2017-07-06T11:06:21.599Z,55
2017-07-06T11:07:23.695Z,55
2017-07-06T11:08:25.775Z,55
2017-07-06T11:09:27.851Z,54
2017-07-06T11:10:29.937Z,53
2017-07-06T11:11:32.022Z,52
2017-07-06T11:12:34.098Z,52
2017-07-06T11:13:36.174Z,53
2017-07-06T11:14:38.257Z,53
2017-07-06T11:15:40.341Z,53
2017-07-06T11:16:42.413Z,53
2017-07-06T11:17:44.503Z,53
2017-07-06T11:18:47.282Z,53
2017-07-06T11:19:49.363Z,52
2017-07-06T11:20:51.444Z,53
2017-07-06T11:21:53.531Z,51
2017-07-06T11:22:55.620Z,54
2017-07-06T11:23:57.697Z,53
2017-07-06T11:24:59.782Z,53
2017-07-06T11:26:01.873Z,53
2017-07-06T11:27:03.958Z,49
2017-07-06T11:28:06.040Z,49
2017-07-06T11:29:08.130Z,51
2017-07-06T11:30:10.210Z,52
2017-07-06T11:31:12.288Z,50
2017-07-06T11:32:14.376Z,53
2017-07-06T11:33:16.467Z,50
2017-07-06T11:34:18.558Z,49
2017-07-06T11:35:20.648Z,51
2017-07-06T11:36:23.092Z,50
2017-07-06T11:37:25.521Z,50
2017-07-06T11:38:27.606Z,49
2017-07-06T11:39:29.695Z,51
2017-07-06T11:40:31.782Z,51
2017-07-06T11:41:33.865Z,50
2017-07-06T11:42:35.957Z,50
2017-07-06T11:43:38.041Z,51
2017-07-06T11:44:40.126Z,53
2017-07-06T11:45:42.213Z,53
2017-07-06T11:46:44.300Z,53
2017-07-06T11:47:46.722Z,54
2017-07-06T11:48:48.809Z,52
2017-07-06T11:49:50.879Z,53
2017-07-06T11:50:52.968Z,51
2017-07-06T11:51:55.054Z,52
2017-07-06T11:52:57.133Z,52
2017-07-06T11:53:59.216Z,52
2017-07-06T11:55:01.296Z,52
2017-07-06T11:56:03.736Z,52
2017-07-06T11:57:05.811Z,53
2017-07-06T11:58:07.890Z,52
2017-07-06T11:59:09.972Z,51
2017-07-06T12:00:12.054Z,50
2017-07-06T12:01:14.144Z,52
2017-07-06T12:02:16.226Z,52
2017-07-06T12:03:18.306Z,52
2017-07-06T12:04:20.397Z,53
2017-07-06T12:05:22.465Z,53
2017-07-06T12:06:24.558Z,56
2017-07-06T12:07:26.647Z,55
2017-07-06T12:08:28.730Z,53
2017-07-06T12:09:30.812Z,52
2017-07-06T12:10:32.900Z,55
2017-07-06T12:11:34.982Z,53
2017-07-06T12:12:37.066Z,55
2017-07-06T12:13:39.152Z,56
2017-07-06T12:14:41.247Z,56
2017-07-06T12:15:43.342Z,57
2017-07-06T12:16:45.422Z,57
2017-07-06T12:17:47.493Z,56
2017-07-06T12:18:49.572Z,56
2017-07-06T12:19:51.659Z,55
2017-07-06T12:20:53.745Z,54
2017-07-06T12:21:55.825Z,54
2017-07-06T12:22:57.910Z,54
2017-07-06T12:23:59.990Z,53
2017-07-06T12:25:02.072Z,54
2017-07-06T12:26:04.167Z,54
2017-07-06T12:27:06.248Z,53
2017-07-06T12:28:08.339Z,52
2017-07-06T12:29:10.425Z,52
2017-07-06T12:30:12.488Z,53
2017-07-06T12:31:14.574Z,54
2017-07-06T12:32:16.669Z,54
2017-07-06T12:33:18.760Z,53
2017-07-06T12:34:20.840Z,53
2017-07-06T12:35:22.928Z,52
2017-07-06T12:36:25.004Z,53
2017-07-06T12:37:27.079Z,54
2017-07-06T12:38:29.170Z,55
2017-07-06T12:39:31.256Z,55
2017-07-06T12:40:33.339Z,54
2017-07-06T12:41:35.434Z,53
2017-07-06T12:42:37.515Z,53
2017-07-06T12:43:39.596Z,52
2017-07-06T12:44:41.665Z,50
2017-07-06T12:45:43.745Z,52
2017-07-06T12:46:45.833Z,51
2017-07-06T12:47:47.921Z,54
2017-07-06T12:48:50.001Z,56
2017-07-06T12:49:52.082Z,55
2017-07-06T12:50:54.160Z,54
2017-07-06T12:51:56.235Z,55
2017-07-06T12:52:58.316Z,55
2017-07-06T12:54:00.393Z,56
2017-07-06T12:55:02.476Z,55
2017-07-06T12:56:04.569Z,56
2017-07-06T12:57:06.655Z,56
2017-07-06T12:58:08.729Z,56
2017-07-06T12:59:11.163Z,55
2017-07-06T13:00:13.581Z,55
2017-07-06T13:01:15.664Z,55
2017-07-06T13:02:17.747Z,55
2017-07-06T13:03:19.827Z,56
2017-07-06T13:05:24.196Z,55
2017-07-06T13:06:26.280Z,54
2017-07-06T13:07:28.370Z,55
2017-07-06T13:08:30.450Z,54
2017-07-06T13:09:32.545Z,54
2017-07-06T13:10:34.632Z,55
2017-07-06T13:11:36.726Z,55
2017-07-06T13:12:38.820Z,56
2017-07-06T13:13:40.906Z,56
2017-07-06T13:14:42.980Z,55
2017-07-06T13:15:45.056Z,54
2017-07-06T13:16:47.143Z,53
2017-07-06T13:17:49.215Z,54
2017-07-06T13:18:51.295Z,54
2017-07-06T13:19:53.386Z,55
2017-07-06T13:20:55.455Z,54
2017-07-06T13:21:57.542Z,56
2017-07-06T13:22:59.620Z,55
2017-07-06T13:24:01.698Z,54
2017-07-06T13:25:03.790Z,53
2017-07-06T13:26:05.864Z,51
2017-07-06T13:27:07.958Z,52
2017-07-06T13:28:10.050Z,53
2017-07-06T13:29:12.123Z,54
2017-07-06T13:30:14.207Z,56
2017-07-06T13:31:16.296Z,54
2017-07-06T13:32:18.375Z,54
2017-07-06T13:33:20.462Z,54
2017-07-06T13:34:22.541Z,53
2017-07-06T13:35:24.624Z,53
2017-07-06T13:36:26.718Z,52
2017-07-06T13:37:28.801Z,51
2017-07-06T13:38:30.884Z,51
2017-07-06T13:39:32.972Z,49
2017-07-06T13:40:35.059Z,49
2017-07-06T13:41:37.139Z,49
2017-07-06T13:42:39.216Z,51
2017-07-06T13:43:41.293Z,52
2017-07-06T13:44:43.375Z,52
2017-07-06T13:45:45.448Z,50
2017-07-06T13:46:47.543Z,52
2017-07-06T13:47:49.642Z,52
2017-07-06T13:48:51.724Z,51
2017-07-06T13:49:53.806Z,53
2017-07-06T13:50:55.895Z,54
2017-07-06T13:51:57.979Z,55
2017-07-06T13:53:00.062Z,55
2017-07-06T13:54:02.143Z,56
2017-07-06T13:55:04.227Z,57
2017-07-06T13:56:06.315Z,57
2017-07-06T13:57:08.393Z,57
2017-07-06T13:58:10.465Z,57
2017-07-06T13:59:12.554Z,55
2017-07-06T14:00:14.629Z,56
2017-07-06T14:01:19.096Z,56
2017-07-06T14:02:22.551Z,52
2017-07-06T14:03:24.635Z,51
2017-07-06T14:04:26.728Z,52
2017-07-06T14:05:28.824Z,50
2017-07-06T14:06:30.907Z,51
2017-07-06T14:07:33.000Z,53
2017-07-06T14:08:35.082Z,50
2017-07-06T14:09:37.181Z,51
2017-07-06T14:10:39.264Z,50
2017-07-06T14:11:41.349Z,47
2017-07-06T14:12:43.434Z,50
2017-07-06T14:13:45.528Z,49
2017-07-06T14:14:47.959Z,49
2017-07-06T14:15:50.046Z,50
2017-07-06T14:16:52.138Z,48
2017-07-06T14:17:54.229Z,48
2017-07-06T14:18:56.311Z,46
2017-07-06T14:19:58.400Z,46
2017-07-06T14:21:00.485Z,46
2017-07-06T14:22:02.584Z,44
2017-07-06T14:23:04.676Z,45
2017-07-06T14:24:06.753Z,45
2017-07-06T14:25:08.847Z,45
2017-07-06T14:26:10.933Z,46
2017-07-06T14:27:13.009Z,45
2017-07-06T14:28:15.111Z,47
2017-07-06T14:29:17.194Z,46
2017-07-06T14:30:19.628Z,47
2017-07-06T14:31:21.713Z,48
2017-07-06T14:32:23.799Z,47
2017-07-06T14:33:25.887Z,48
2017-07-06T14:34:27.970Z,46
2017-07-06T14:35:30.057Z,46
2017-07-06T14:36:32.156Z,46
2017-07-06T14:37:34.237Z,46
2017-07-06T14:38:36.329Z,46
2017-07-06T14:39:38.412Z,44
2017-07-06T14:40:40.504Z,44
2017-07-06T14:41:42.586Z,45
2017-07-06T14:42:44.665Z,48
2017-07-06T14:43:46.765Z,49
2017-07-06T14:44:48.855Z,49
2017-07-06T14:45:50.944Z,49
2017-07-06T14:46:53.382Z,48